CCA308 ZBAD-ZGGG
Flight info
| Callsign | CCA308 |
|---|---|
| Flight time | 2h 43m |
| Altitude | 40100 |
| Route | PEGSO8M PEGSO B215 EKETA/K0909S1250 B208 SQ/K0907S1220 W45 LYA/K0906S1250 W45 ML/K0904S1220 W45 NUPTI/K0904S1250 W45 VESUX/K0909S1220 W45 IKAVO IKAVO8 |
| Aircraft | B789/H-SDE1E2E3FGHIJ2J3J4J5M1RWXY/LB1D1 |
Departure
| Time | 2026-04-22 13:25 |
|---|---|
| Airport | Beijing Daxing International Airport (ZBAD) |
Arrival
| Time | 2026-04-22 16:08 |
|---|---|
| Airport | Guangzhou Baiyun International Airport (ZGGG) |
| Time | Latitude | Longitude | Altitude | Speed | Heading |
|---|---|---|---|---|---|
| 2026-04-22 12:50 | 39.50395 | 116.41128 | 90 ft | 0 kts | 5° |
| 2026-04-22 13:00 | 39.50373 | 116.41126 | 90 ft | 4 kts | 5° |
| 2026-04-22 13:00 | 39.50346 | 116.41122 | 90 ft | 4 kts | 5° |
| 2026-04-22 13:01 | 39.50324 | 116.41119 | 90 ft | 4 kts | 0° |
| 2026-04-22 13:01 | 39.50308 | 116.41123 | 91 ft | 4 kts | 309° |
| 2026-04-22 13:01 | 39.50301 | 116.41147 | 91 ft | 4 kts | 272° |
| 2026-04-22 13:01 | 39.50302 | 116.41174 | 89 ft | 0 kts | 263° |
| 2026-04-22 13:11 | 39.50302 | 116.41168 | 90 ft | 2 kts | 263° |
| 2026-04-22 13:11 | 39.50300 | 116.41146 | 93 ft | 4 kts | 263° |
| 2026-04-22 13:12 | 39.50296 | 116.41106 | 92 ft | 5 kts | 263° |
| 2026-04-22 13:12 | 39.50290 | 116.41049 | 92 ft | 7 kts | 263° |
| 2026-04-22 13:12 | 39.50281 | 116.40975 | 93 ft | 9 kts | 251° |
| 2026-04-22 13:12 | 39.50239 | 116.40931 | 93 ft | 8 kts | 192° |
| 2026-04-22 13:13 | 39.50188 | 116.40917 | 92 ft | 7 kts | 211° |
| 2026-04-22 13:13 | 39.50170 | 116.40873 | 92 ft | 6 kts | 261° |
| 2026-04-22 13:13 | 39.50163 | 116.40815 | 91 ft | 7 kts | 261° |
| 2026-04-22 13:13 | 39.50156 | 116.40742 | 93 ft | 9 kts | 263° |
| 2026-04-22 13:14 | 39.50148 | 116.40656 | 93 ft | 10 kts | 262° |
| 2026-04-22 13:14 | 39.50138 | 116.40556 | 91 ft | 12 kts | 263° |
| 2026-04-22 13:14 | 39.50127 | 116.40444 | 94 ft | 12 kts | 263° |
| 2026-04-22 13:14 | 39.50126 | 116.40434 | 93 ft | 0 kts | 263° |
| 2026-04-22 13:15 | 39.50125 | 116.40428 | 93 ft | 2 kts | 263° |
| 2026-04-22 13:15 | 39.50123 | 116.40405 | 92 ft | 4 kts | 263° |
| 2026-04-22 13:15 | 39.50120 | 116.40365 | 92 ft | 5 kts | 264° |
| 2026-04-22 13:16 | 39.50115 | 116.40311 | 94 ft | 7 kts | 264° |
| 2026-04-22 13:16 | 39.50115 | 116.40303 | 94 ft | 0 kts | 264° |
| 2026-04-22 13:16 | 39.50114 | 116.40293 | 93 ft | 2 kts | 263° |
| 2026-04-22 13:17 | 39.50112 | 116.40261 | 94 ft | 5 kts | 268° |
| 2026-04-22 13:17 | 39.50120 | 116.40231 | 94 ft | 3 kts | 307° |
| 2026-04-22 13:17 | 39.50140 | 116.40215 | 93 ft | 4 kts | 340° |
| 2026-04-22 13:17 | 39.50174 | 116.40210 | 92 ft | 7 kts | 353° |
| 2026-04-22 13:18 | 39.50236 | 116.40201 | 92 ft | 11 kts | 353° |
| 2026-04-22 13:18 | 39.50326 | 116.40187 | 93 ft | 15 kts | 353° |
| 2026-04-22 13:18 | 39.50439 | 116.40168 | 92 ft | 18 kts | 353° |
| 2026-04-22 13:18 | 39.50575 | 116.40146 | 92 ft | 21 kts | 353° |
| 2026-04-22 13:19 | 39.50731 | 116.40122 | 93 ft | 24 kts | 353° |
| 2026-04-22 13:19 | 39.50899 | 116.40094 | 92 ft | 26 kts | 352° |
| 2026-04-22 13:19 | 39.51084 | 116.40066 | 92 ft | 28 kts | 353° |
| 2026-04-22 13:19 | 39.51271 | 116.40037 | 92 ft | 25 kts | 353° |
| 2026-04-22 13:20 | 39.51447 | 116.40010 | 92 ft | 26 kts | 352° |
| 2026-04-22 13:20 | 39.51587 | 116.39985 | 92 ft | 18 kts | 352° |
| 2026-04-22 13:20 | 39.51721 | 116.39962 | 92 ft | 20 kts | 353° |
| 2026-04-22 13:20 | 39.51801 | 116.39925 | 95 ft | 7 kts | 304° |
| 2026-04-22 13:21 | 39.51806 | 116.39874 | 94 ft | 6 kts | 265° |
| 2026-04-22 13:21 | 39.51801 | 116.39828 | 95 ft | 5 kts | 262° |
| 2026-04-22 13:21 | 39.51797 | 116.39788 | 97 ft | 4 kts | 262° |
| 2026-04-22 13:21 | 39.51797 | 116.39783 | 97 ft | 0 kts | 262° |
| 2026-04-22 13:23 | 39.51796 | 116.39780 | 97 ft | 1 kts | 262° |
| 2026-04-22 13:23 | 39.51795 | 116.39764 | 98 ft | 2 kts | 262° |
| 2026-04-22 13:23 | 39.51793 | 116.39744 | 98 ft | 2 kts | 262° |
| 2026-04-22 13:23 | 39.51790 | 116.39715 | 102 ft | 5 kts | 262° |
| 2026-04-22 13:24 | 39.51773 | 116.39658 | 102 ft | 10 kts | 234° |
| 2026-04-22 13:24 | 39.51689 | 116.39631 | 104 ft | 18 kts | 174° |
| 2026-04-22 13:24 | 39.51446 | 116.39670 | 105 ft | 58 kts | 174° |
| 2026-04-22 13:24 | 39.50839 | 116.39763 | 102 ft | 118 kts | 173° |
| 2026-04-22 13:25 | 39.49855 | 116.39919 | 146 ft | 165 kts | 175° |
| 2026-04-22 13:25 | 39.48736 | 116.40042 | 905 ft | 155 kts | 178° |
| 2026-04-22 13:25 | 39.47765 | 116.40169 | 1947 ft | 137 kts | 176° |
| 2026-04-22 13:25 | 39.46743 | 116.40335 | 2333 ft | 160 kts | 174° |
| 2026-04-22 13:26 | 39.45530 | 116.40570 | 2769 ft | 185 kts | 173° |
| 2026-04-22 13:26 | 39.44206 | 116.40768 | 3209 ft | 209 kts | 175° |
| 2026-04-22 13:26 | 39.42678 | 116.40985 | 3634 ft | 235 kts | 175° |
| 2026-04-22 13:26 | 39.40955 | 116.41248 | 3927 ft | 259 kts | 174° |
| 2026-04-22 13:27 | 39.39098 | 116.41551 | 4140 ft | 261 kts | 174° |
| 2026-04-22 13:27 | 39.37317 | 116.41838 | 5270 ft | 260 kts | 174° |
| 2026-04-22 13:27 | 39.35495 | 116.41850 | 6190 ft | 266 kts | 197° |
| 2026-04-22 13:27 | 39.33836 | 116.40810 | 7105 ft | 269 kts | 221° |
| 2026-04-22 13:28 | 39.32659 | 116.38881 | 7973 ft | 275 kts | 240° |
| 2026-04-22 13:28 | 39.31721 | 116.36729 | 8780 ft | 281 kts | 243° |
| 2026-04-22 13:28 | 39.30804 | 116.34468 | 9676 ft | 287 kts | 244° |
| 2026-04-22 13:28 | 39.29839 | 116.32163 | 10344 ft | 300 kts | 243° |
| 2026-04-22 13:29 | 39.28777 | 116.29696 | 10558 ft | 328 kts | 243° |
| 2026-04-22 13:29 | 39.27624 | 116.27020 | 10732 ft | 355 kts | 243° |
| 2026-04-22 13:29 | 39.26396 | 116.24144 | 11116 ft | 371 kts | 243° |
| 2026-04-22 13:29 | 39.25152 | 116.21237 | 12039 ft | 370 kts | 243° |
| 2026-04-22 13:30 | 39.23920 | 116.18362 | 12811 ft | 374 kts | 243° |
| 2026-04-22 13:30 | 39.22636 | 116.15370 | 13627 ft | 376 kts | 243° |
| 2026-04-22 13:30 | 39.21365 | 116.12408 | 14339 ft | 379 kts | 243° |
| 2026-04-22 13:30 | 39.20083 | 116.09423 | 15005 ft | 382 kts | 243° |
| 2026-04-22 13:31 | 39.18792 | 116.06419 | 15686 ft | 385 kts | 243° |
| 2026-04-22 13:31 | 39.17491 | 116.03394 | 16344 ft | 387 kts | 243° |
| 2026-04-22 13:31 | 39.16177 | 116.00343 | 16973 ft | 390 kts | 243° |
| 2026-04-22 13:31 | 39.14855 | 115.97276 | 17624 ft | 393 kts | 243° |
| 2026-04-22 13:32 | 39.13519 | 115.94190 | 18248 ft | 396 kts | 243° |
| 2026-04-22 13:32 | 39.12169 | 115.91082 | 18785 ft | 398 kts | 244° |
| 2026-04-22 13:32 | 39.10821 | 115.87976 | 19362 ft | 399 kts | 244° |
| 2026-04-22 13:32 | 39.09467 | 115.84855 | 19902 ft | 401 kts | 244° |
| 2026-04-22 13:33 | 39.08098 | 115.81703 | 20436 ft | 402 kts | 244° |
| 2026-04-22 13:33 | 39.06743 | 115.78591 | 20940 ft | 404 kts | 244° |
| 2026-04-22 13:33 | 39.05371 | 115.75441 | 21454 ft | 405 kts | 244° |
| 2026-04-22 13:33 | 39.03994 | 115.72282 | 21922 ft | 406 kts | 244° |
| 2026-04-22 13:34 | 39.02613 | 115.69115 | 22374 ft | 408 kts | 244° |
| 2026-04-22 13:34 | 39.01223 | 115.65936 | 22843 ft | 409 kts | 244° |
| 2026-04-22 13:34 | 38.99832 | 115.62755 | 23265 ft | 411 kts | 244° |
| 2026-04-22 13:34 | 38.98428 | 115.59548 | 23634 ft | 413 kts | 244° |
| 2026-04-22 13:35 | 38.97020 | 115.56333 | 24018 ft | 413 kts | 244° |
| 2026-04-22 13:35 | 38.95613 | 115.53129 | 24377 ft | 413 kts | 244° |
| 2026-04-22 13:35 | 38.94243 | 115.49893 | 24716 ft | 412 kts | 248° |
| 2026-04-22 13:35 | 38.93113 | 115.46562 | 25008 ft | 412 kts | 248° |
| 2026-04-22 13:36 | 38.91916 | 115.43196 | 25373 ft | 412 kts | 248° |
| 2026-04-22 13:36 | 38.90728 | 115.39858 | 25717 ft | 412 kts | 248° |
| 2026-04-22 13:36 | 38.89566 | 115.36522 | 25995 ft | 413 kts | 248° |
| 2026-04-22 13:36 | 38.88389 | 115.33143 | 26342 ft | 413 kts | 248° |
| 2026-04-22 13:37 | 38.87208 | 115.29788 | 26687 ft | 414 kts | 247° |
| 2026-04-22 13:37 | 38.86022 | 115.26430 | 27037 ft | 414 kts | 247° |
| 2026-04-22 13:37 | 38.84799 | 115.22957 | 27398 ft | 415 kts | 247° |
| 2026-04-22 13:37 | 38.83613 | 115.19588 | 27729 ft | 415 kts | 247° |
| 2026-04-22 13:38 | 38.82421 | 115.16210 | 28092 ft | 416 kts | 247° |
| 2026-04-22 13:38 | 38.80027 | 115.09445 | 28775 ft | 417 kts | 247° |
| 2026-04-22 13:38 | 38.78828 | 115.06058 | 29128 ft | 418 kts | 247° |
| 2026-04-22 13:39 | 38.77625 | 115.02665 | 29442 ft | 419 kts | 246° |
| 2026-04-22 13:39 | 38.76414 | 114.99253 | 29694 ft | 422 kts | 246° |
| 2026-04-22 13:39 | 38.75198 | 114.95837 | 30088 ft | 421 kts | 246° |
| 2026-04-22 13:39 | 38.73983 | 114.92415 | 30374 ft | 423 kts | 246° |
| 2026-04-22 13:40 | 38.72764 | 114.88982 | 30627 ft | 424 kts | 246° |
| 2026-04-22 13:40 | 38.71539 | 114.85542 | 30894 ft | 426 kts | 246° |
| 2026-04-22 13:40 | 38.70723 | 114.83253 | 31074 ft | 427 kts | 246° |
| 2026-04-22 13:40 | 38.69071 | 114.78624 | 31461 ft | 427 kts | 246° |
| 2026-04-22 13:41 | 38.68254 | 114.76340 | 31745 ft | 426 kts | 246° |
| 2026-04-22 13:41 | 38.66609 | 114.71740 | 32296 ft | 424 kts | 247° |
| 2026-04-22 13:41 | 38.65797 | 114.69473 | 32577 ft | 423 kts | 247° |
| 2026-04-22 13:41 | 38.64574 | 114.66061 | 32994 ft | 421 kts | 247° |
| 2026-04-22 13:42 | 38.63354 | 114.62661 | 33371 ft | 421 kts | 247° |
| 2026-04-22 13:42 | 38.62136 | 114.59271 | 33836 ft | 418 kts | 247° |
| 2026-04-22 13:42 | 38.60917 | 114.55904 | 34220 ft | 417 kts | 247° |
| 2026-04-22 13:42 | 38.59688 | 114.52540 | 34482 ft | 418 kts | 247° |
| 2026-04-22 13:43 | 38.58460 | 114.49165 | 34744 ft | 419 kts | 247° |
| 2026-04-22 13:43 | 38.57239 | 114.45776 | 35007 ft | 421 kts | 247° |
| 2026-04-22 13:43 | 38.56014 | 114.42378 | 35269 ft | 422 kts | 247° |
| 2026-04-22 13:43 | 38.54778 | 114.38975 | 35532 ft | 423 kts | 247° |
| 2026-04-22 13:44 | 38.53538 | 114.35567 | 35798 ft | 424 kts | 246° |
| 2026-04-22 13:44 | 38.52297 | 114.32150 | 36051 ft | 425 kts | 246° |
| 2026-04-22 13:44 | 38.51050 | 114.28721 | 36297 ft | 426 kts | 246° |
| 2026-04-22 13:44 | 38.49800 | 114.25287 | 36541 ft | 427 kts | 246° |
| 2026-04-22 13:45 | 38.48544 | 114.21845 | 36802 ft | 428 kts | 246° |
| 2026-04-22 13:45 | 38.47285 | 114.18396 | 37057 ft | 429 kts | 246° |
| 2026-04-22 13:45 | 38.46037 | 114.14983 | 37309 ft | 430 kts | 246° |
| 2026-04-22 13:45 | 38.44753 | 114.11474 | 37579 ft | 431 kts | 246° |
| 2026-04-22 13:46 | 38.43486 | 114.08015 | 37813 ft | 433 kts | 246° |
| 2026-04-22 13:46 | 38.42204 | 114.04519 | 38015 ft | 435 kts | 246° |
| 2026-04-22 13:46 | 38.40919 | 114.01019 | 38250 ft | 436 kts | 247° |
| 2026-04-22 13:46 | 38.39634 | 113.97516 | 38498 ft | 437 kts | 247° |
| 2026-04-22 13:47 | 38.38344 | 113.94002 | 38685 ft | 439 kts | 247° |
| 2026-04-22 13:47 | 38.37049 | 113.90482 | 38953 ft | 438 kts | 247° |
| 2026-04-22 13:47 | 38.35758 | 113.86981 | 39206 ft | 437 kts | 247° |
| 2026-04-22 13:47 | 38.34468 | 113.83480 | 39442 ft | 436 kts | 247° |
| 2026-04-22 13:48 | 38.33174 | 113.79985 | 39681 ft | 436 kts | 246° |
| 2026-04-22 13:48 | 38.31858 | 113.76501 | 39858 ft | 437 kts | 246° |
| 2026-04-22 13:48 | 38.30550 | 113.73062 | 39976 ft | 440 kts | 246° |
| 2026-04-22 13:48 | 38.29221 | 113.69532 | 40035 ft | 443 kts | 246° |
| 2026-04-22 13:49 | 38.26542 | 113.62429 | 40101 ft | 446 kts | 246° |
| 2026-04-22 13:49 | 38.23859 | 113.55356 | 40096 ft | 442 kts | 246° |
| 2026-04-22 13:50 | 38.21196 | 113.48332 | 40108 ft | 441 kts | 246° |
| 2026-04-22 13:50 | 38.18520 | 113.41302 | 40119 ft | 443 kts | 246° |
| 2026-04-22 13:51 | 38.15834 | 113.34250 | 40117 ft | 444 kts | 247° |
| 2026-04-22 13:51 | 38.13212 | 113.27151 | 40119 ft | 444 kts | 247° |
| 2026-04-22 13:52 | 38.10563 | 113.20079 | 40096 ft | 443 kts | 247° |
| 2026-04-22 13:52 | 38.07928 | 113.13035 | 40101 ft | 441 kts | 247° |
| 2026-04-22 13:53 | 38.05293 | 113.06006 | 40108 ft | 442 kts | 247° |
| 2026-04-22 13:53 | 38.02648 | 112.98973 | 40117 ft | 442 kts | 247° |
| 2026-04-22 13:54 | 37.99992 | 112.91923 | 40093 ft | 443 kts | 247° |
| 2026-04-22 13:54 | 37.97334 | 112.84889 | 40098 ft | 442 kts | 247° |
| 2026-04-22 13:55 | 37.94680 | 112.77878 | 40122 ft | 440 kts | 247° |
| 2026-04-22 13:55 | 37.91951 | 112.70921 | 40132 ft | 443 kts | 239° |
| 2026-04-22 13:56 | 37.87706 | 112.65180 | 40148 ft | 457 kts | 219° |
| 2026-04-22 13:56 | 37.84930 | 112.63162 | 40151 ft | 466 kts | 208° |
| 2026-04-22 13:56 | 37.81822 | 112.61873 | 40153 ft | 476 kts | 197° |
| 2026-04-22 13:57 | 37.78498 | 112.61419 | 40133 ft | 487 kts | 185° |
| 2026-04-22 13:57 | 37.75142 | 112.61850 | 40157 ft | 498 kts | 173° |
| 2026-04-22 13:57 | 37.68403 | 112.64088 | 40130 ft | 500 kts | 172° |
| 2026-04-22 13:58 | 37.61702 | 112.66322 | 40126 ft | 497 kts | 172° |
| 2026-04-22 13:58 | 37.55012 | 112.68560 | 40098 ft | 497 kts | 172° |
| 2026-04-22 13:59 | 37.48315 | 112.70798 | 40109 ft | 498 kts | 172° |
| 2026-04-22 13:59 | 37.41605 | 112.73033 | 40113 ft | 499 kts | 172° |
| 2026-04-22 14:00 | 37.34897 | 112.75268 | 40126 ft | 499 kts | 172° |
| 2026-04-22 14:00 | 37.28190 | 112.77493 | 40118 ft | 498 kts | 172° |
| 2026-04-22 14:01 | 37.21494 | 112.79715 | 40120 ft | 497 kts | 172° |
| 2026-04-22 14:01 | 37.14832 | 112.81919 | 40118 ft | 495 kts | 172° |
| 2026-04-22 14:02 | 37.08156 | 112.84123 | 40123 ft | 497 kts | 172° |
| 2026-04-22 14:02 | 37.01504 | 112.86322 | 40128 ft | 493 kts | 173° |
| 2026-04-22 14:03 | 36.94881 | 112.88508 | 40126 ft | 492 kts | 173° |
| 2026-04-22 14:03 | 36.88257 | 112.90690 | 40125 ft | 492 kts | 173° |
| 2026-04-22 14:04 | 36.81623 | 112.92874 | 40127 ft | 491 kts | 173° |
| 2026-04-22 14:04 | 36.75072 | 112.95025 | 40124 ft | 489 kts | 173° |
| 2026-04-22 14:05 | 36.68489 | 112.97181 | 40130 ft | 489 kts | 173° |
| 2026-04-22 14:06 | 36.58591 | 113.00420 | 40139 ft | 491 kts | 173° |
| 2026-04-22 14:06 | 36.51981 | 113.02577 | 40140 ft | 491 kts | 173° |
| 2026-04-22 14:07 | 36.45372 | 113.04730 | 40140 ft | 491 kts | 173° |
| 2026-04-22 14:07 | 36.38776 | 113.06875 | 40138 ft | 490 kts | 173° |
| 2026-04-22 14:08 | 36.32185 | 113.09016 | 40135 ft | 489 kts | 174° |
| 2026-04-22 14:08 | 36.25605 | 113.10200 | 40162 ft | 472 kts | 189° |
| 2026-04-22 14:09 | 36.19266 | 113.09020 | 40157 ft | 455 kts | 205° |
| 2026-04-22 14:09 | 36.13458 | 113.06159 | 40150 ft | 451 kts | 210° |
| 2026-04-22 14:10 | 36.07706 | 113.03164 | 40143 ft | 449 kts | 210° |
| 2026-04-22 14:10 | 36.01932 | 113.00155 | 40146 ft | 449 kts | 210° |
| 2026-04-22 14:11 | 35.96214 | 112.97187 | 40147 ft | 449 kts | 210° |
| 2026-04-22 14:11 | 35.90460 | 112.94200 | 40137 ft | 450 kts | 210° |
| 2026-04-22 14:12 | 35.84713 | 112.91225 | 40137 ft | 449 kts | 210° |
| 2026-04-22 14:12 | 35.78955 | 112.88246 | 40139 ft | 449 kts | 210° |
| 2026-04-22 14:13 | 35.73117 | 112.85207 | 40136 ft | 449 kts | 211° |
| 2026-04-22 14:13 | 35.67479 | 112.82271 | 40131 ft | 448 kts | 211° |
| 2026-04-22 14:14 | 35.61748 | 112.79293 | 40137 ft | 448 kts | 211° |
| 2026-04-22 14:14 | 35.56012 | 112.76311 | 40143 ft | 450 kts | 211° |
| 2026-04-22 14:15 | 35.50152 | 112.73251 | 40143 ft | 450 kts | 211° |
| 2026-04-22 14:15 | 35.44391 | 112.70254 | 40123 ft | 449 kts | 211° |
| 2026-04-22 14:16 | 35.38646 | 112.67266 | 40135 ft | 448 kts | 211° |
| 2026-04-22 14:16 | 35.32898 | 112.64282 | 40133 ft | 449 kts | 211° |
| 2026-04-22 14:17 | 35.27144 | 112.61302 | 40118 ft | 447 kts | 211° |
| 2026-04-22 14:17 | 35.21422 | 112.58336 | 40123 ft | 448 kts | 211° |
| 2026-04-22 14:18 | 35.15660 | 112.55381 | 40124 ft | 449 kts | 211° |
| 2026-04-22 14:18 | 35.09841 | 112.52574 | 40148 ft | 454 kts | 205° |
| 2026-04-22 14:19 | 35.03793 | 112.50349 | 40119 ft | 453 kts | 206° |
| 2026-04-22 14:19 | 34.97759 | 112.48132 | 40121 ft | 453 kts | 205° |
| 2026-04-22 14:20 | 34.88732 | 112.44822 | 40126 ft | 455 kts | 205° |
| 2026-04-22 14:20 | 34.82615 | 112.42587 | 40123 ft | 455 kts | 205° |
| 2026-04-22 14:21 | 34.73397 | 112.39886 | 40140 ft | 470 kts | 193° |
| 2026-04-22 14:22 | 34.66745 | 112.40141 | 40134 ft | 481 kts | 186° |
| 2026-04-22 14:22 | 34.63440 | 112.40422 | 40133 ft | 480 kts | 186° |
| 2026-04-22 14:23 | 34.53495 | 112.41277 | 40122 ft | 479 kts | 186° |
| 2026-04-22 14:23 | 34.46857 | 112.41846 | 40123 ft | 480 kts | 186° |
| 2026-04-22 14:24 | 34.40122 | 112.42423 | 40131 ft | 481 kts | 186° |
| 2026-04-22 14:24 | 34.33540 | 112.42985 | 40135 ft | 482 kts | 186° |
| 2026-04-22 14:25 | 34.26871 | 112.43555 | 40138 ft | 481 kts | 186° |
| 2026-04-22 14:25 | 34.20224 | 112.44121 | 40136 ft | 480 kts | 186° |
| 2026-04-22 14:26 | 34.13582 | 112.44685 | 40133 ft | 480 kts | 186° |
| 2026-04-22 14:26 | 34.06781 | 112.45262 | 40135 ft | 481 kts | 186° |
| 2026-04-22 14:27 | 34.00160 | 112.45826 | 40137 ft | 480 kts | 186° |
| 2026-04-22 14:27 | 33.93476 | 112.46387 | 40140 ft | 482 kts | 186° |
| 2026-04-22 14:28 | 33.86782 | 112.46957 | 40125 ft | 483 kts | 186° |
| 2026-04-22 14:28 | 33.80038 | 112.47520 | 40150 ft | 487 kts | 186° |
| 2026-04-22 14:29 | 33.73286 | 112.48095 | 40152 ft | 487 kts | 186° |
| 2026-04-22 14:29 | 33.67673 | 112.48564 | 40146 ft | 486 kts | 186° |
| 2026-04-22 14:30 | 33.60940 | 112.49136 | 40152 ft | 484 kts | 186° |
| 2026-04-22 14:30 | 33.54193 | 112.49711 | 40146 ft | 486 kts | 186° |
| 2026-04-22 14:31 | 33.46354 | 112.50379 | 40144 ft | 486 kts | 186° |
| 2026-04-22 14:31 | 33.40697 | 112.50859 | 40146 ft | 487 kts | 186° |
| 2026-04-22 14:32 | 33.33961 | 112.51433 | 40141 ft | 485 kts | 186° |
| 2026-04-22 14:32 | 33.27226 | 112.52001 | 40143 ft | 486 kts | 186° |
| 2026-04-22 14:33 | 33.20484 | 112.52573 | 40141 ft | 486 kts | 186° |
| 2026-04-22 14:33 | 33.13768 | 112.53139 | 40140 ft | 487 kts | 186° |
| 2026-04-22 14:34 | 33.07034 | 112.53709 | 40136 ft | 484 kts | 186° |
| 2026-04-22 14:34 | 33.00324 | 112.54272 | 40134 ft | 484 kts | 186° |
| 2026-04-22 14:35 | 32.93627 | 112.54715 | 40149 ft | 473 kts | 193° |
| 2026-04-22 14:35 | 32.87326 | 112.53493 | 40139 ft | 454 kts | 207° |
| 2026-04-22 14:36 | 32.81199 | 112.51382 | 40144 ft | 457 kts | 206° |
| 2026-04-22 14:36 | 32.75038 | 112.49390 | 40144 ft | 460 kts | 205° |
| 2026-04-22 14:37 | 32.68891 | 112.47385 | 40144 ft | 457 kts | 206° |
| 2026-04-22 14:37 | 32.62766 | 112.45389 | 40145 ft | 455 kts | 206° |
| 2026-04-22 14:38 | 32.56684 | 112.43413 | 40144 ft | 457 kts | 206° |
| 2026-04-22 14:38 | 32.50536 | 112.41417 | 40139 ft | 459 kts | 206° |
| 2026-04-22 14:39 | 32.44374 | 112.39423 | 40141 ft | 458 kts | 206° |
| 2026-04-22 14:39 | 32.38234 | 112.37434 | 40129 ft | 458 kts | 206° |
| 2026-04-22 14:40 | 32.28998 | 112.34451 | 40133 ft | 459 kts | 206° |
| 2026-04-22 14:40 | 32.22830 | 112.32461 | 40134 ft | 459 kts | 206° |
| 2026-04-22 14:41 | 32.16665 | 112.30476 | 40107 ft | 460 kts | 206° |
| 2026-04-22 14:41 | 32.10466 | 112.28481 | 40137 ft | 463 kts | 205° |
| 2026-04-22 14:42 | 32.04126 | 112.26867 | 40129 ft | 470 kts | 200° |
| 2026-04-22 14:42 | 31.97684 | 112.25537 | 40139 ft | 471 kts | 200° |
| 2026-04-22 14:43 | 31.91233 | 112.24238 | 40145 ft | 469 kts | 200° |
| 2026-04-22 14:43 | 31.84801 | 112.22930 | 40136 ft | 469 kts | 200° |
| 2026-04-22 14:44 | 31.78407 | 112.21637 | 40138 ft | 469 kts | 200° |
| 2026-04-22 14:44 | 31.71972 | 112.20336 | 40138 ft | 469 kts | 200° |
| 2026-04-22 14:45 | 31.65537 | 112.19036 | 40133 ft | 471 kts | 200° |
| 2026-04-22 14:45 | 31.59054 | 112.17730 | 40137 ft | 473 kts | 200° |
| 2026-04-22 14:46 | 31.52581 | 112.16428 | 40131 ft | 472 kts | 200° |
| 2026-04-22 14:46 | 31.46132 | 112.15130 | 40134 ft | 473 kts | 200° |
| 2026-04-22 14:47 | 31.39628 | 112.13793 | 40140 ft | 471 kts | 202° |
| 2026-04-22 14:47 | 31.33186 | 112.12203 | 40153 ft | 473 kts | 202° |
| 2026-04-22 14:48 | 31.26782 | 112.10639 | 40142 ft | 468 kts | 202° |
| 2026-04-22 14:48 | 31.20406 | 112.09073 | 40142 ft | 468 kts | 202° |
| 2026-04-22 14:49 | 31.14013 | 112.07510 | 40138 ft | 472 kts | 202° |
| 2026-04-22 14:49 | 31.07566 | 112.05937 | 40138 ft | 473 kts | 202° |
| 2026-04-22 14:50 | 31.01133 | 112.04369 | 40139 ft | 472 kts | 201° |
| 2026-04-22 14:50 | 30.94707 | 112.02804 | 40139 ft | 472 kts | 201° |
| 2026-04-22 14:51 | 30.88297 | 112.01247 | 40140 ft | 470 kts | 201° |
| 2026-04-22 14:51 | 30.81897 | 111.99691 | 40141 ft | 470 kts | 201° |
| 2026-04-22 14:52 | 30.75536 | 111.98150 | 40141 ft | 470 kts | 201° |
| 2026-04-22 14:52 | 30.69166 | 111.96607 | 40141 ft | 470 kts | 201° |
| 2026-04-22 14:53 | 30.62728 | 111.95055 | 40137 ft | 471 kts | 201° |
| 2026-04-22 14:53 | 30.56369 | 111.93530 | 40144 ft | 471 kts | 201° |
| 2026-04-22 14:54 | 30.49883 | 111.91972 | 40146 ft | 472 kts | 201° |
| 2026-04-22 14:54 | 30.43454 | 111.90433 | 40116 ft | 472 kts | 201° |
| 2026-04-22 14:55 | 30.37021 | 111.88892 | 40146 ft | 473 kts | 201° |
| 2026-04-22 14:55 | 30.30576 | 111.87354 | 40147 ft | 473 kts | 201° |
| 2026-04-22 14:56 | 30.24182 | 111.85828 | 40150 ft | 472 kts | 201° |
| 2026-04-22 14:56 | 30.17765 | 111.84299 | 40107 ft | 470 kts | 201° |
| 2026-04-22 14:57 | 30.11331 | 111.82765 | 40153 ft | 475 kts | 201° |
| 2026-04-22 14:57 | 30.04860 | 111.81232 | 40147 ft | 474 kts | 201° |
| 2026-04-22 14:58 | 29.98408 | 111.79698 | 40166 ft | 473 kts | 201° |
| 2026-04-22 14:58 | 29.91963 | 111.78171 | 40134 ft | 472 kts | 201° |
| 2026-04-22 14:59 | 29.85535 | 111.76648 | 40162 ft | 473 kts | 201° |
| 2026-04-22 14:59 | 29.79086 | 111.75124 | 40167 ft | 475 kts | 201° |
| 2026-04-22 15:00 | 29.72635 | 111.73603 | 40165 ft | 473 kts | 201° |
| 2026-04-22 15:00 | 29.66202 | 111.72084 | 40142 ft | 472 kts | 201° |
| 2026-04-22 15:01 | 29.59798 | 111.70578 | 40157 ft | 469 kts | 201° |
| 2026-04-22 15:01 | 29.53419 | 111.69075 | 40155 ft | 469 kts | 201° |
| 2026-04-22 15:02 | 29.47036 | 111.67578 | 40155 ft | 469 kts | 201° |
| 2026-04-22 15:02 | 29.40550 | 111.66055 | 40156 ft | 470 kts | 201° |
| 2026-04-22 15:03 | 29.34200 | 111.64783 | 40180 ft | 479 kts | 193° |
| 2026-04-22 15:03 | 29.27511 | 111.64418 | 40169 ft | 483 kts | 192° |
| 2026-04-22 15:04 | 29.20817 | 111.64065 | 40168 ft | 482 kts | 192° |
| 2026-04-22 15:04 | 29.14031 | 111.63706 | 40141 ft | 480 kts | 192° |
| 2026-04-22 15:05 | 29.07336 | 111.63353 | 40151 ft | 477 kts | 192° |
| 2026-04-22 15:05 | 29.00697 | 111.63001 | 40152 ft | 478 kts | 192° |
| 2026-04-22 15:06 | 28.94092 | 111.62654 | 40157 ft | 479 kts | 192° |
| 2026-04-22 15:06 | 28.87419 | 111.62302 | 40128 ft | 480 kts | 193° |
| 2026-04-22 15:07 | 28.80811 | 111.61730 | 40167 ft | 475 kts | 196° |
| 2026-04-22 15:07 | 28.74231 | 111.61015 | 40169 ft | 475 kts | 195° |
| 2026-04-22 15:08 | 28.67643 | 111.60303 | 40167 ft | 475 kts | 195° |
| 2026-04-22 15:08 | 28.61061 | 111.59589 | 40128 ft | 475 kts | 195° |
| 2026-04-22 15:09 | 28.54504 | 111.58882 | 40155 ft | 473 kts | 196° |
| 2026-04-22 15:09 | 28.47959 | 111.58173 | 40155 ft | 473 kts | 196° |
| 2026-04-22 15:10 | 28.41402 | 111.57467 | 40155 ft | 473 kts | 196° |
| 2026-04-22 15:10 | 28.34858 | 111.56775 | 40167 ft | 474 kts | 196° |
| 2026-04-22 15:11 | 28.28317 | 111.56084 | 40165 ft | 473 kts | 196° |
| 2026-04-22 15:11 | 28.21780 | 111.55389 | 40168 ft | 474 kts | 196° |
| 2026-04-22 15:12 | 28.15228 | 111.54700 | 40168 ft | 473 kts | 196° |
| 2026-04-22 15:12 | 28.08679 | 111.54007 | 40168 ft | 473 kts | 196° |
| 2026-04-22 15:13 | 28.02153 | 111.53321 | 40157 ft | 472 kts | 197° |
| 2026-04-22 15:13 | 27.95614 | 111.52630 | 40160 ft | 473 kts | 196° |
| 2026-04-22 15:14 | 27.89066 | 111.51947 | 40171 ft | 475 kts | 196° |
| 2026-04-22 15:14 | 27.82522 | 111.51261 | 40162 ft | 472 kts | 197° |
| 2026-04-22 15:15 | 27.76005 | 111.50578 | 40158 ft | 471 kts | 197° |
| 2026-04-22 15:15 | 27.69471 | 111.49893 | 40160 ft | 473 kts | 197° |
| 2026-04-22 15:16 | 27.62819 | 111.49202 | 40168 ft | 473 kts | 197° |
| 2026-04-22 15:16 | 27.56259 | 111.48516 | 40168 ft | 473 kts | 197° |
| 2026-04-22 15:17 | 27.49700 | 111.47834 | 40159 ft | 473 kts | 197° |
| 2026-04-22 15:17 | 27.44246 | 111.47268 | 40160 ft | 474 kts | 196° |
| 2026-04-22 15:18 | 27.37665 | 111.46581 | 40163 ft | 474 kts | 197° |
| 2026-04-22 15:18 | 27.29998 | 111.45788 | 40156 ft | 472 kts | 197° |
| 2026-04-22 15:19 | 27.24572 | 111.45225 | 40113 ft | 471 kts | 197° |
| 2026-04-22 15:19 | 27.18049 | 111.44547 | 40155 ft | 472 kts | 196° |
| 2026-04-22 15:20 | 27.11504 | 111.43872 | 40158 ft | 473 kts | 196° |
| 2026-04-22 15:20 | 27.04952 | 111.43196 | 40158 ft | 472 kts | 196° |
| 2026-04-22 15:21 | 27.01633 | 111.43117 | 40178 ft | 484 kts | 187° |
| 2026-04-22 15:21 | 26.98240 | 111.43570 | 40178 ft | 498 kts | 179° |
| 2026-04-22 15:21 | 26.94851 | 111.44590 | 40172 ft | 511 kts | 170° |
| 2026-04-22 15:21 | 26.91555 | 111.46187 | 40181 ft | 522 kts | 161° |
| 2026-04-22 15:22 | 26.88449 | 111.48356 | 40178 ft | 533 kts | 151° |
| 2026-04-22 15:22 | 26.85607 | 111.51092 | 40175 ft | 545 kts | 141° |
| 2026-04-22 15:22 | 26.80765 | 111.57729 | 40166 ft | 551 kts | 134° |
| 2026-04-22 15:23 | 26.76105 | 111.64469 | 40163 ft | 552 kts | 134° |
| 2026-04-22 15:23 | 26.71393 | 111.71260 | 40162 ft | 553 kts | 135° |
| 2026-04-22 15:24 | 26.66670 | 111.78062 | 40164 ft | 554 kts | 135° |
| 2026-04-22 15:24 | 26.61954 | 111.84844 | 40154 ft | 550 kts | 134° |
| 2026-04-22 15:25 | 26.57260 | 111.91580 | 40152 ft | 549 kts | 135° |
| 2026-04-22 15:25 | 26.52572 | 111.98300 | 40157 ft | 549 kts | 135° |
| 2026-04-22 15:26 | 26.47873 | 112.05024 | 40159 ft | 549 kts | 135° |
| 2026-04-22 15:26 | 26.43171 | 112.11744 | 40160 ft | 549 kts | 135° |
| 2026-04-22 15:27 | 26.38494 | 112.18418 | 40158 ft | 548 kts | 135° |
| 2026-04-22 15:27 | 26.33778 | 112.25137 | 40157 ft | 547 kts | 135° |
| 2026-04-22 15:28 | 26.29086 | 112.31812 | 40162 ft | 547 kts | 135° |
| 2026-04-22 15:28 | 26.24389 | 112.38485 | 40159 ft | 546 kts | 134° |
| 2026-04-22 15:29 | 26.19744 | 112.45078 | 40159 ft | 544 kts | 134° |
| 2026-04-22 15:30 | 26.12736 | 112.54999 | 40162 ft | 544 kts | 134° |
| 2026-04-22 15:30 | 26.08049 | 112.61623 | 40159 ft | 545 kts | 134° |
| 2026-04-22 15:31 | 26.03356 | 112.68248 | 40156 ft | 545 kts | 134° |
| 2026-04-22 15:31 | 25.98664 | 112.74861 | 40157 ft | 544 kts | 134° |
| 2026-04-22 15:32 | 25.93965 | 112.81474 | 40155 ft | 545 kts | 134° |
| 2026-04-22 15:32 | 25.89268 | 112.88076 | 40152 ft | 544 kts | 134° |
| 2026-04-22 15:33 | 25.84580 | 112.94656 | 40149 ft | 543 kts | 134° |
| 2026-04-22 15:33 | 25.79480 | 113.00669 | 40171 ft | 527 kts | 151° |
| 2026-04-22 15:33 | 25.76444 | 113.02869 | 40175 ft | 515 kts | 161° |
| 2026-04-22 15:34 | 25.73213 | 113.04464 | 40175 ft | 503 kts | 171° |
| 2026-04-22 15:34 | 25.69917 | 113.05450 | 40176 ft | 492 kts | 180° |
| 2026-04-22 15:34 | 25.66553 | 113.05867 | 40170 ft | 482 kts | 188° |
| 2026-04-22 15:35 | 25.59879 | 113.05751 | 40152 ft | 480 kts | 191° |
| 2026-04-22 15:35 | 25.53205 | 113.05578 | 40130 ft | 480 kts | 190° |
| 2026-04-22 15:36 | 25.46519 | 113.05409 | 40137 ft | 481 kts | 190° |
| 2026-04-22 15:36 | 25.39821 | 113.05240 | 40131 ft | 481 kts | 190° |
| 2026-04-22 15:37 | 25.33118 | 113.05070 | 40124 ft | 482 kts | 190° |
| 2026-04-22 15:37 | 25.26418 | 113.04901 | 40113 ft | 481 kts | 189° |
| 2026-04-22 15:38 | 25.19744 | 113.04733 | 40102 ft | 479 kts | 189° |
| 2026-04-22 15:38 | 25.09770 | 113.04481 | 40090 ft | 477 kts | 189° |
| 2026-04-22 15:39 | 25.03124 | 113.04314 | 40090 ft | 478 kts | 189° |
| 2026-04-22 15:39 | 24.96478 | 113.04147 | 40085 ft | 478 kts | 189° |
| 2026-04-22 15:40 | 24.89817 | 113.03980 | 40090 ft | 479 kts | 189° |
| 2026-04-22 15:40 | 24.83191 | 113.03813 | 40074 ft | 480 kts | 189° |
| 2026-04-22 15:41 | 24.76529 | 113.03647 | 40064 ft | 481 kts | 189° |
| 2026-04-22 15:41 | 24.69838 | 113.03480 | 40045 ft | 480 kts | 189° |
| 2026-04-22 15:42 | 24.63157 | 113.03312 | 40044 ft | 481 kts | 189° |
| 2026-04-22 15:42 | 24.56465 | 113.03146 | 40040 ft | 481 kts | 189° |
| 2026-04-22 15:43 | 24.49772 | 113.02978 | 40034 ft | 481 kts | 189° |
| 2026-04-22 15:43 | 24.43044 | 113.03737 | 40055 ft | 497 kts | 173° |
| 2026-04-22 15:44 | 24.36335 | 113.05554 | 39519 ft | 498 kts | 173° |
| 2026-04-22 15:44 | 24.32974 | 113.06464 | 38910 ft | 498 kts | 173° |
| 2026-04-22 15:44 | 24.29613 | 113.07380 | 38208 ft | 497 kts | 173° |
| 2026-04-22 15:45 | 24.26272 | 113.08289 | 37534 ft | 494 kts | 173° |
| 2026-04-22 15:45 | 24.22939 | 113.09190 | 36863 ft | 493 kts | 173° |
| 2026-04-22 15:45 | 24.19606 | 113.10088 | 36165 ft | 493 kts | 173° |
| 2026-04-22 15:45 | 24.16276 | 113.10988 | 35424 ft | 495 kts | 173° |
| 2026-04-22 15:46 | 24.12906 | 113.11899 | 34679 ft | 503 kts | 173° |
| 2026-04-22 15:46 | 24.09490 | 113.12820 | 33883 ft | 509 kts | 172° |
| 2026-04-22 15:46 | 24.06053 | 113.13752 | 33030 ft | 509 kts | 172° |
| 2026-04-22 15:46 | 24.02739 | 113.14649 | 32187 ft | 509 kts | 172° |
| 2026-04-22 15:47 | 23.99174 | 113.15597 | 31263 ft | 509 kts | 172° |
| 2026-04-22 15:47 | 23.95738 | 113.16499 | 30331 ft | 510 kts | 172° |
| 2026-04-22 15:47 | 23.92289 | 113.17415 | 29293 ft | 511 kts | 172° |
| 2026-04-22 15:47 | 23.88859 | 113.18333 | 28329 ft | 507 kts | 171° |
| 2026-04-22 15:48 | 23.85450 | 113.19240 | 27390 ft | 504 kts | 172° |
| 2026-04-22 15:48 | 23.82063 | 113.20134 | 26473 ft | 500 kts | 171° |
| 2026-04-22 15:48 | 23.78698 | 113.21023 | 25542 ft | 497 kts | 171° |
| 2026-04-22 15:48 | 23.75348 | 113.21913 | 24625 ft | 494 kts | 171° |
| 2026-04-22 15:49 | 23.72039 | 113.22791 | 23723 ft | 491 kts | 171° |
| 2026-04-22 15:49 | 23.68722 | 113.23537 | 22768 ft | 481 kts | 178° |
| 2026-04-22 15:49 | 23.65441 | 113.23673 | 21869 ft | 468 kts | 187° |
| 2026-04-22 15:49 | 23.62261 | 113.23231 | 21002 ft | 456 kts | 195° |
| 2026-04-22 15:50 | 23.59170 | 113.22597 | 20122 ft | 450 kts | 194° |
| 2026-04-22 15:50 | 23.56119 | 113.21970 | 19263 ft | 445 kts | 194° |
| 2026-04-22 15:50 | 23.53100 | 113.21346 | 18409 ft | 440 kts | 194° |
| 2026-04-22 15:50 | 23.50116 | 113.20733 | 17537 ft | 435 kts | 194° |
| 2026-04-22 15:51 | 23.47151 | 113.20117 | 16698 ft | 427 kts | 194° |
| 2026-04-22 15:51 | 23.44313 | 113.19509 | 16145 ft | 414 kts | 194° |
| 2026-04-22 15:51 | 23.41587 | 113.18930 | 15973 ft | 393 kts | 194° |
| 2026-04-22 15:51 | 23.38957 | 113.18380 | 15831 ft | 372 kts | 195° |
| 2026-04-22 15:52 | 23.36487 | 113.17861 | 15671 ft | 353 kts | 195° |
| 2026-04-22 15:52 | 23.34141 | 113.17365 | 15523 ft | 336 kts | 195° |
| 2026-04-22 15:52 | 23.31909 | 113.16893 | 15380 ft | 320 kts | 195° |
| 2026-04-22 15:52 | 23.29775 | 113.16444 | 15244 ft | 305 kts | 195° |
| 2026-04-22 15:53 | 23.27746 | 113.16017 | 15116 ft | 291 kts | 196° |
| 2026-04-22 15:53 | 23.25809 | 113.15610 | 14988 ft | 277 kts | 196° |
| 2026-04-22 15:53 | 23.23958 | 113.15220 | 14807 ft | 267 kts | 196° |
| 2026-04-22 15:53 | 23.22109 | 113.14829 | 14560 ft | 259 kts | 196° |
| 2026-04-22 15:54 | 23.20366 | 113.14463 | 14337 ft | 252 kts | 196° |
| 2026-04-22 15:54 | 23.18723 | 113.14023 | 14152 ft | 237 kts | 200° |
| 2026-04-22 15:54 | 23.17138 | 113.13606 | 13934 ft | 236 kts | 199° |
| 2026-04-22 15:54 | 23.15530 | 113.13189 | 13712 ft | 238 kts | 199° |
| 2026-04-22 15:55 | 23.13939 | 113.12717 | 13468 ft | 234 kts | 208° |
| 2026-04-22 15:55 | 23.12595 | 113.11815 | 13414 ft | 229 kts | 216° |
| 2026-04-22 15:55 | 23.11177 | 113.10957 | 13158 ft | 235 kts | 213° |
| 2026-04-22 15:55 | 23.09755 | 113.10113 | 12855 ft | 231 kts | 214° |
| 2026-04-22 15:56 | 23.08364 | 113.09242 | 12548 ft | 230 kts | 214° |
| 2026-04-22 15:56 | 23.06973 | 113.08405 | 12244 ft | 230 kts | 207° |
| 2026-04-22 15:56 | 23.05377 | 113.08117 | 11957 ft | 236 kts | 187° |
| 2026-04-22 15:56 | 23.03735 | 113.08067 | 11661 ft | 236 kts | 186° |
| 2026-04-22 15:57 | 23.02102 | 113.08033 | 11355 ft | 234 kts | 186° |
| 2026-04-22 15:57 | 23.00479 | 113.07990 | 11058 ft | 232 kts | 187° |
| 2026-04-22 15:57 | 22.98870 | 113.07942 | 10752 ft | 230 kts | 187° |
| 2026-04-22 15:57 | 22.97269 | 113.08082 | 10425 ft | 237 kts | 167° |
| 2026-04-22 15:58 | 22.95841 | 113.09013 | 10140 ft | 245 kts | 139° |
| 2026-04-22 15:58 | 22.94941 | 113.10594 | 9915 ft | 253 kts | 111° |
| 2026-04-22 15:58 | 22.94509 | 113.12420 | 9627 ft | 253 kts | 106° |
| 2026-04-22 15:58 | 22.94107 | 113.14257 | 9296 ft | 248 kts | 106° |
| 2026-04-22 15:59 | 22.93735 | 113.16061 | 8969 ft | 244 kts | 100° |
| 2026-04-22 15:59 | 22.94005 | 113.17851 | 8624 ft | 241 kts | 65° |
| 2026-04-22 15:59 | 22.95025 | 113.19221 | 8307 ft | 231 kts | 33° |
| 2026-04-22 15:59 | 22.96456 | 113.19884 | 8021 ft | 220 kts | 9° |
| 2026-04-22 16:00 | 22.97931 | 113.20273 | 7751 ft | 217 kts | 9° |
| 2026-04-22 16:00 | 22.99388 | 113.20657 | 7457 ft | 214 kts | 9° |
| 2026-04-22 16:00 | 23.00827 | 113.21042 | 7180 ft | 212 kts | 9° |
| 2026-04-22 16:00 | 23.02250 | 113.21424 | 6904 ft | 210 kts | 9° |
| 2026-04-22 16:01 | 23.03658 | 113.21804 | 6633 ft | 206 kts | 9° |
| 2026-04-22 16:01 | 23.05067 | 113.22181 | 6194 ft | 211 kts | 9° |
| 2026-04-22 16:01 | 23.06474 | 113.22560 | 5898 ft | 207 kts | 9° |
| 2026-04-22 16:01 | 23.07871 | 113.22937 | 5630 ft | 202 kts | 10° |
| 2026-04-22 16:02 | 23.09206 | 113.23297 | 5370 ft | 198 kts | 10° |
| 2026-04-22 16:02 | 23.10530 | 113.23654 | 5117 ft | 194 kts | 10° |
| 2026-04-22 16:02 | 23.11830 | 113.24004 | 4868 ft | 191 kts | 10° |
| 2026-04-22 16:02 | 23.13106 | 113.24348 | 4637 ft | 188 kts | 10° |
| 2026-04-22 16:03 | 23.14360 | 113.24686 | 4405 ft | 183 kts | 10° |
| 2026-04-22 16:03 | 23.15579 | 113.25015 | 4156 ft | 179 kts | 10° |
| 2026-04-22 16:03 | 23.16785 | 113.25340 | 3933 ft | 179 kts | 11° |
| 2026-04-22 16:03 | 23.17987 | 113.25664 | 3694 ft | 178 kts | 11° |
| 2026-04-22 16:04 | 23.19193 | 113.25988 | 3460 ft | 179 kts | 11° |
| 2026-04-22 16:04 | 23.20392 | 113.26310 | 3256 ft | 178 kts | 11° |
| 2026-04-22 16:04 | 23.21629 | 113.26643 | 3024 ft | 177 kts | 12° |
| 2026-04-22 16:04 | 23.22818 | 113.26962 | 2791 ft | 173 kts | 12° |
| 2026-04-22 16:05 | 23.23590 | 113.27172 | 2649 ft | 172 kts | 12° |
| 2026-04-22 16:05 | 23.25091 | 113.27575 | 2353 ft | 168 kts | 12° |
| 2026-04-22 16:05 | 23.25868 | 113.27787 | 2201 ft | 162 kts | 12° |
| 2026-04-22 16:05 | 23.27260 | 113.28163 | 1937 ft | 148 kts | 12° |
| 2026-04-22 16:06 | 23.28260 | 113.28430 | 1752 ft | 149 kts | 12° |
| 2026-04-22 16:06 | 23.29269 | 113.28699 | 1558 ft | 147 kts | 12° |
| 2026-04-22 16:06 | 23.29928 | 113.28872 | 1414 ft | 144 kts | 12° |
| 2026-04-22 16:06 | 23.30911 | 113.29131 | 1243 ft | 148 kts | 13° |
| 2026-04-22 16:07 | 23.31903 | 113.29392 | 1056 ft | 145 kts | 13° |
| 2026-04-22 16:07 | 23.33229 | 113.29732 | 816 ft | 152 kts | 13° |
| 2026-04-22 16:07 | 23.34259 | 113.30010 | 632 ft | 153 kts | 14° |
| 2026-04-22 16:07 | 23.35303 | 113.30322 | 452 ft | 159 kts | 15° |
| 2026-04-22 16:08 | 23.36351 | 113.30610 | 214 ft | 154 kts | 13° |
| 2026-04-22 16:08 | 23.37379 | 113.30884 | 60 ft | 146 kts | 13° |
| 2026-04-22 16:08 | 23.37927 | 113.31031 | 56 ft | 85 kts | 14° |
| 2026-04-22 16:08 | 23.38293 | 113.31132 | 57 ft | 26 kts | 13° |
| 2026-04-22 16:09 | 23.38412 | 113.31163 | 57 ft | 27 kts | 13° |
| 2026-04-22 16:09 | 23.38601 | 113.31205 | 58 ft | 28 kts | 4° |
| 2026-04-22 16:09 | 23.38784 | 113.31174 | 59 ft | 27 kts | 345° |
| 2026-04-22 16:09 | 23.38946 | 113.31131 | 59 ft | 17 kts | 349° |
| 2026-04-22 16:10 | 23.39019 | 113.31077 | 120 ft | 32 kts | 281° |
| 2026-04-22 16:10 | 23.38996 | 113.30836 | 60 ft | 37 kts | 269° |
| 2026-04-22 16:10 | 23.39056 | 113.30579 | 55 ft | 28 kts | 310° |
| 2026-04-22 16:10 | 23.39182 | 113.30564 | 56 ft | 18 kts | 20° |
| 2026-04-22 16:11 | 23.39202 | 113.30572 | 55 ft | 0 kts | 20° |
| 2026-04-22 16:13 | 23.39205 | 113.30573 | 55 ft | 1 kts | 20° |
| 2026-04-22 16:13 | 23.39220 | 113.30578 | 58 ft | 3 kts | 17° |
| 2026-04-22 16:13 | 23.39246 | 113.30585 | 57 ft | 4 kts | 13° |
| 2026-04-22 16:13 | 23.39281 | 113.30594 | 59 ft | 6 kts | 13° |
| 2026-04-22 16:14 | 23.39332 | 113.30608 | 61 ft | 7 kts | 15° |
| 2026-04-22 16:14 | 23.39387 | 113.30624 | 55 ft | 9 kts | 15° |
| 2026-04-22 16:14 | 23.39457 | 113.30644 | 56 ft | 11 kts | 15° |
| 2026-04-22 16:14 | 23.39540 | 113.30664 | 58 ft | 13 kts | 12° |
| 2026-04-22 16:15 | 23.39630 | 113.30688 | 61 ft | 14 kts | 14° |
| 2026-04-22 16:15 | 23.39729 | 113.30715 | 56 ft | 14 kts | 14° |
| 2026-04-22 16:15 | 23.39785 | 113.30677 | 55 ft | 8 kts | 280° |
| 2026-04-22 16:15 | 23.39780 | 113.30628 | 59 ft | 6 kts | 257° |
| 2026-04-22 16:16 | 23.39773 | 113.30594 | 63 ft | 0 kts | 258° |